Time;durP1;ratioP1;P1;durP2;ratioP2;P2;SDS_P1;SDS_P2;PMS_P1;PMS_P2;Temp;Humidity;BMP_temperature;BMP_pressure;BME280_temperature;BME280_humidity;BME280_pressure;Samples;Min_cycle;Max_cycle;Signal;HPM_P1;HPM_P2
2024/01/13 00:00:50;;;;;;;12.47;9.03;;;-2.10;88.50;;;-3.47;98.45;99008.81;5060356;28;20461;-73
2024/01/13 00:03:18;;;;;;;13.30;8.43;;;-2.10;88.90;;;-3.26;97.75;99011.00;5056048;28;20958;-76
2024/01/13 00:05:46;;;;;;;13.60;9.60;;;-2.00;89.60;;;-3.22;97.72;99011.63;5050168;28;20458;-74
2024/01/13 00:08:13;;;;;;;18.03;9.67;;;-2.00;89.30;;;-3.17;98.00;99014.81;5060949;28;20531;-69
2024/01/13 00:10:40;;;;;;;14.23;7.90;;;-1.90;89.60;;;-3.45;95.78;98932.91;5065034;28;20960;-74
2024/01/13 00:13:09;;;;;;;14.23;7.77;;;-1.70;89.20;;;-3.03;96.09;99011.22;5048093;28;20467;-76
2024/01/13 00:15:39;;;;;;;12.63;7.43;;;-1.80;87.90;;;-3.07;96.05;99015.03;5060984;28;20649;-73
2024/01/13 00:18:08;;;;;;;13.50;8.17;;;-1.70;87.20;;;-3.46;97.46;99026.34;5047224;28;20443;-75
2024/01/13 00:20:37;;;;;;;11.57;7.30;;;-2.00;86.30;;;-3.50;98.30;99024.88;5047209;28;20452;-73
2024/01/13 00:23:04;;;;;;;11.00;6.77;;;-2.10;87.40;;;-3.46;98.32;99015.78;5049003;28;20508;-74
2024/01/13 00:25:31;;;;;;;13.17;7.67;;;-2.10;88.30;;;-3.29;97.77;99013.81;5037291;28;20491;-76
2024/01/13 00:27:59;;;;;;;12.50;8.10;;;-2.00;89.00;;;-3.40;97.90;99008.41;5026192;28;20465;-69
2024/01/13 00:30:29;;;;;;;11.90;7.00;;;-2.00;88.70;;;-3.24;97.77;99002.94;5050531;28;20462;-72
2024/01/13 00:33:01;;;;;;;12.43;7.70;;;-2.00;89.20;;;-3.26;97.61;99005.72;5046099;28;20469;-73
2024/01/13 00:35:28;;;;;;;13.53;7.97;;;-1.90;88.80;;;-3.34;98.20;99005.34;5043721;28;20489;-75
2024/01/13 00:37:56;;;;;;;16.00;9.77;;;-2.00;88.50;;;-3.40;98.51;98995.22;5036807;28;20455;-72
2024/01/13 00:40:24;;;;;;;13.57;9.10;;;-2.10;88.60;;;-3.19;98.67;98993.75;5048599;28;20536;-73
2024/01/13 00:42:52;;;;;;;15.53;8.93;;;-2.00;90.10;;;-3.27;98.60;98993.41;5047133;28;20482;-70
2024/01/13 00:45:20;;;;;;;18.87;10.40;;;-1.90;89.90;;;-3.38;99.25;98990.66;5052228;28;20467;-70
2024/01/13 00:47:49;;;;;;;17.60;9.73;;;-1.90;89.70;;;-3.43;99.74;98994.44;5048474;28;20971;-74
2024/01/13 00:50:20;;;;;;;15.03;10.23;;;-2.00;89.90;;;-3.49;100.00;98994.84;5064833;28;20544;-73
2024/01/13 00:52:48;;;;;;;14.53;9.40;;;-2.00;90.40;;;-3.60;100.00;98990.28;5068987;28;20863;-75
2024/01/13 00:55:15;;;;;;;18.43;10.30;;;-2.10;90.60;;;-3.32;100.00;98987.59;5049296;28;20459;-75
2024/01/13 00:57:42;;;;;;;17.47;9.50;;;-2.00;91.60;;;-3.33;100.00;98983.25;5048936;28;20555;-73
2024/01/13 01:00:11;;;;;;;14.90;9.80;;;-1.90;91.50;;;-3.22;99.79;98974.59;5046325;28;20560;-71
2024/01/13 01:02:38;;;;;;;15.17;9.87;;;-1.90;91.10;;;-3.20;100.00;98976.19;5041655;28;20512;-76
2024/01/13 01:05:07;;;;;;;19.73;11.27;;;-1.90;91.10;;;-3.10;99.77;98986.16;5055460;28;20527;-71
2024/01/13 01:07:36;;;;;;;15.67;10.90;;;-1.80;90.90;;;-3.10;99.02;98980.88;5051029;28;20456;-74
2024/01/13 01:10:04;;;;;;;16.13;10.10;;;-1.80;90.60;;;-3.26;100.00;98973.97;5044431;28;20483;-75
2024/01/13 01:12:31;;;;;;;16.83;10.73;;;-1.80;90.60;;;-3.25;100.00;98970.38;5051058;28;20906;-74
2024/01/13 01:14:59;;;;;;;16.00;9.50;;;-1.90;90.80;;;-3.08;99.69;98971.03;5047962;28;20448;-75
2024/01/13 01:17:26;;;;;;;16.03;10.00;;;-1.80;91.10;;;-3.40;100.00;98976.72;5044546;28;20472;-75
2024/01/13 01:19:54;;;;;;;17.63;10.87;;;-1.90;90.70;;;-3.45;100.00;98964.63;5044977;28;20465;-77
2024/01/13 01:22:21;;;;;;;14.50;8.83;;;-2.00;91.10;;;-3.38;100.00;98961.59;5045860;28;20940;-75
2024/01/13 01:24:50;;;;;;;17.57;9.50;;;-2.00;91.50;;;-3.17;100.00;98959.28;5045992;28;20465;-76
2024/01/13 01:27:18;;;;;;;23.90;12.07;;;-1.90;91.80;;;-3.23;100.00;98962.34;5046127;28;20487;-75
2024/01/13 01:29:45;;;;;;;17.37;8.97;;;-1.90;91.60;;;-3.29;100.00;98967.09;5038292;28;20509;-74
2024/01/13 01:32:12;;;;;;;16.87;9.90;;;-1.90;91.40;;;-3.16;100.00;98956.53;5042214;28;20457;-72
2024/01/13 01:34:41;;;;;;;16.53;10.13;;;-1.80;91.60;;;-3.14;100.00;98951.97;5041009;28;20455;-74
2024/01/13 01:37:08;;;;;;;19.40;10.57;;;-1.80;91.40;;;-3.25;100.00;98954.53;5041782;28;20482;-73
2024/01/13 01:39:35;;;;;;;16.90;10.47;;;-1.80;91.00;;;-3.16;100.00;98953.06;5061839;28;20451;-70
2024/01/13 01:42:05;;;;;;;21.03;11.00;;;-1.80;91.20;;;-3.11;99.78;98955.34;5054839;28;20462;-73
2024/01/13 01:44:33;;;;;;;16.43;10.80;;;-1.80;91.10;;;-3.38;100.00;98964.22;5043630;28;20450;-72
2024/01/13 01:47:04;;;;;;;20.40;9.90;;;-1.90;91.00;;;-3.25;100.00;98951.88;5059343;28;20476;-74
2024/01/13 01:49:32;;;;;;;15.83;9.30;;;-1.90;91.30;;;-3.25;100.00;98946.59;5028866;28;20545;-75
2024/01/13 01:51:59;;;;;;;18.97;9.20;;;-1.90;91.30;;;-3.29;100.00;98947.72;5037439;28;20557;-74
2024/01/13 01:54:27;;;;;;;16.73;9.80;;;-1.90;91.30;;;-3.28;100.00;98946.78;5050345;28;20456;-67
2024/01/13 01:56:56;;;;;;;16.03;9.10;;;-1.90;91.00;;;-3.35;100.00;98953.44;5036546;28;20482;-74
2024/01/13 01:59:25;;;;;;;15.27;9.07;;;-1.90;90.40;;;-3.25;100.00;98940.44;5046923;28;20547;-74
2024/01/13 02:01:53;;;;;;;17.00;9.60;;;-1.90;90.80;;;-3.22;100.00;98938.44;5044503;28;20442;-73
2024/01/13 02:04:21;;;;;;;15.67;9.60;;;-1.90;90.80;;;-3.30;100.00;98944.25;5046479;28;20453;-70
2024/01/13 02:06:48;;;;;;;16.97;9.60;;;-1.90;90.80;;;-3.08;100.00;98939.31;5060120;28;20509;-75
2024/01/13 02:09:16;;;;;;;16.37;7.97;;;-1.90;91.20;;;-3.15;99.87;98937.06;5046410;28;20491;-72
2024/01/13 02:11:43;;;;;;;15.77;8.77;;;-1.80;91.00;;;-3.18;99.66;98933.81;5062545;28;20449;-70
2024/01/13 02:14:11;;;;;;;18.33;9.90;;;-1.80;90.30;;;-3.30;99.42;98925.75;5047009;28;20458;-72
2024/01/13 02:16:39;;;;;;;16.60;8.80;;;-1.90;90.00;;;-3.15;99.50;98925.66;5066913;28;20475;-73
2024/01/13 02:19:07;;;;;;;18.23;8.80;;;-1.80;90.30;;;-3.20;100.00;98925.97;5059782;28;20510;-70
2024/01/13 02:21:38;;;;;;;17.00;8.63;;;-1.90;90.50;;;-3.15;99.57;98929.13;5051746;28;21018;-75
2024/01/13 02:24:05;;;;;;;15.27;8.50;;;-1.80;90.50;;;-3.35;98.53;98908.50;5057599;28;20449;-69
2024/01/13 02:26:34;;;;;;;16.07;8.30;;;-1.90;89.80;;;-3.40;99.22;98908.00;5037850;28;20479;-75
2024/01/13 02:29:02;;;;;;;15.63;7.90;;;-2.00;90.10;;;-3.53;100.00;98914.09;5040240;28;20490;-75
2024/01/13 02:31:29;;;;;;;11.37;6.80;;;-2.10;90.10;;;-3.46;100.00;98907.44;5039102;28;20518;-74
2024/01/13 02:33:57;;;;;;;14.07;7.67;;;-2.10;90.30;;;-3.42;100.00;98906.28;5045120;28;20478;-71
2024/01/13 02:36:24;;;;;;;15.60;7.00;;;-2.00;90.40;;;-3.38;99.81;98906.09;5042550;28;20479;-70
2024/01/13 02:38:53;;;;;;;14.00;8.50;;;-2.00;90.30;;;-3.54;100.00;98903.63;5055660;28;21136;-67
2024/01/13 02:41:20;;;;;;;15.40;7.30;;;-2.10;90.30;;;-3.57;100.00;98905.53;5078551;28;21001;-72
2024/01/13 02:43:47;;;;;;;17.47;8.13;;;-2.10;90.50;;;-3.59;100.00;98898.66;5047062;28;20475;-72
2024/01/13 02:46:15;;;;;;;12.70;7.60;;;-2.10;90.40;;;-3.59;100.00;98898.66;5045711;28;20454;-69
2024/01/13 02:48:48;;;;;;;13.63;8.60;;;-2.10;90.70;;;-3.46;100.00;98893.41;5053409;28;20468;-72
2024/01/13 02:51:17;;;;;;;13.73;7.63;;;-2.10;90.60;;;-3.37;99.11;98889.28;5056082;28;20476;-72
2024/01/13 02:53:45;;;;;;;10.63;6.30;;;-2.00;90.20;;;-3.37;99.37;98891.91;5039972;28;20475;-76
2024/01/13 02:56:14;;;;;;;12.53;6.97;;;-2.00;90.10;;;-3.35;99.36;98884.72;5037341;28;20463;-72
2024/01/13 02:58:42;;;;;;;11.87;7.23;;;-2.00;90.00;;;-3.35;99.14;98880.28;5059321;28;20530;-73
2024/01/13 03:01:10;;;;;;;13.00;7.80;;;-2.00;90.00;;;-3.45;99.69;98874.78;5038744;28;20460;-75
2024/01/13 03:03:37;;;;;;;14.27;8.30;;;-2.00;89.90;;;-3.52;99.94;98870.03;5067061;28;20458;-76
2024/01/13 03:06:06;;;;;;;15.63;8.13;;;-2.10;90.00;;;-3.34;98.88;98865.28;5054941;28;20466;-75
2024/01/13 03:08:34;;;;;;;12.03;7.50;;;-2.00;90.10;;;-3.37;98.84;98870.78;5047728;28;20922;-75
2024/01/13 03:11:01;;;;;;;13.97;7.23;;;-2.00;88.90;;;-3.18;97.53;98865.91;5049052;28;20751;-69
2024/01/13 03:13:31;;;;;;;13.00;7.90;;;-1.90;89.30;;;-3.19;97.38;98853.63;5068130;28;20616;-74
2024/01/13 03:15:59;;;;;;;14.00;7.50;;;-1.80;88.50;;;-3.22;97.52;98848.56;5038807;28;20542;-73
2024/01/13 03:18:27;;;;;;;14.53;7.73;;;-1.90;88.50;;;-3.22;97.22;98859.16;5041726;28;20448;-74
2024/01/13 03:20:55;;;;;;;11.80;7.00;;;-1.80;87.50;;;-3.11;97.36;98852.25;5045960;28;20502;-75
2024/01/13 03:23:23;;;;;;;15.37;8.10;;;-1.80;87.80;;;-3.38;97.88;98847.94;5048561;28;20860;-72
2024/01/13 03:25:49;;;;;;;13.40;8.60;;;-1.90;87.20;;;-3.42;98.16;98836.72;5047481;28;20529;-77
2024/01/13 03:28:16;;;;;;;15.63;8.83;;;-1.90;87.80;;;-3.31;98.65;98833.34;5064167;28;20538;-75
2024/01/13 03:30:45;;;;;;;13.20;7.90;;;-1.90;88.70;;;-3.19;97.79;98842.19;5062957;28;20444;-75
2024/01/13 03:33:13;;;;;;;15.20;9.33;;;-1.90;88.70;;;-3.30;98.61;98842.97;5034967;28;20446;-73
2024/01/13 03:35:40;;;;;;;16.63;9.90;;;-1.90;89.00;;;-3.47;100.00;98839.69;5043408;28;20455;-74
2024/01/13 03:38:08;;;;;;;17.33;10.33;;;-2.00;89.80;;;-3.35;100.00;98842.44;5064566;28;20491;-74
2024/01/13 03:40:35;;;;;;;17.63;9.10;;;-2.00;90.30;;;-3.37;100.00;98823.22;5058043;28;20452;-72
2024/01/13 03:43:03;;;;;;;15.83;8.47;;;-1.90;90.50;;;-3.45;100.00;98829.84;5060631;28;20464;-73
2024/01/13 03:45:31;;;;;;;16.73;9.10;;;-2.00;90.70;;;-3.18;100.00;98823.59;5042607;28;20460;-72
2024/01/13 03:48:00;;;;;;;16.77;9.53;;;-1.90;91.00;;;-3.26;99.64;98825.94;5044096;28;20451;-73
2024/01/13 03:50:28;;;;;;;20.30;10.10;;;-1.80;90.70;;;-3.08;99.82;98820.31;5042941;28;20484;-73
2024/01/13 03:52:55;;;;;;;18.90;9.97;;;-1.80;90.70;;;-3.03;98.23;98818.19;5052415;28;20467;-74
2024/01/13 03:55:24;;;;;;;16.93;8.83;;;-1.70;90.20;;;-3.06;98.08;98802.53;5029230;28;21058;-69
2024/01/13 03:57:51;;;;;;;18.37;9.20;;;-1.70;90.10;;;-3.02;98.09;98819.88;5042507;28;20470;-75
2024/01/13 04:00:19;;;;;;;18.13;8.97;;;-1.70;89.80;;;-2.99;97.97;98817.00;5044754;28;20513;-74
2024/01/13 04:02:47;;;;;;;15.60;9.03;;;-1.70;89.80;;;-3.05;98.25;98815.63;5064287;28;20518;-75
2024/01/13 04:05:15;;;;;;;13.57;8.30;;;-1.70;89.50;;;-2.95;98.45;98801.78;5044301;28;20958;-75
2024/01/13 04:07:43;;;;;;;15.20;8.80;;;-1.70;89.80;;;-2.92;96.96;98807.69;5047452;28;20462;-75
2024/01/13 04:10:11;;;;;;;13.17;8.33;;;-1.60;89.00;;;-2.94;97.32;98806.97;5045787;28;20471;-72
2024/01/13 04:12:40;;;;;;;16.50;9.07;;;-1.60;88.50;;;-3.06;97.74;98805.19;5059463;28;20534;-74
2024/01/13 04:15:10;;;;;;;18.57;9.70;;;-1.70;88.60;;;-3.01;98.17;98810.97;5060659;28;20449;-76
2024/01/13 04:17:38;;;;;;;15.13;9.13;;;-1.70;88.70;;;-3.05;98.50;98807.69;5045494;28;20482;-73
2024/01/13 04:20:06;;;;;;;15.50;9.40;;;-1.70;88.80;;;-2.73;97.13;98801.06;5048129;28;20459;-75
2024/01/13 04:22:35;;;;;;;15.37;9.07;;;-1.70;90.10;;;-2.79;95.94;98797.06;5062119;28;20978;-74
2024/01/13 04:25:02;;;;;;;19.10;10.37;;;-1.60;89.30;;;-2.97;97.95;98793.09;5041410;28;21032;-74
2024/01/13 04:27:30;;;;;;;17.77;9.47;;;-1.80;89.10;;;-2.83;97.30;98784.16;5062560;28;20524;-73
2024/01/13 04:29:57;;;;;;;16.13;9.80;;;-1.70;90.00;;;-2.74;96.25;98794.91;5047365;28;20456;-74
2024/01/13 04:32:24;;;;;;;15.83;8.30;;;-1.60;89.90;;;-2.70;95.62;98787.59;5061885;28;20468;-70
2024/01/13 04:34:51;;;;;;;14.60;9.50;;;-1.60;89.00;;;-2.71;95.39;98788.56;5041914;28;20460;-75
2024/01/13 04:37:19;;;;;;;18.33;10.33;;;-1.60;87.80;;;-3.30;96.22;98724.88;5050356;28;20714;-75
2024/01/13 04:39:47;;;;;;;17.00;8.30;;;-1.70;88.30;;;-2.85;96.87;98787.75;5058084;28;20955;-70
2024/01/13 04:42:15;;;;;;;16.80;9.20;;;-1.70;89.30;;;-3.26;96.54;98725.50;5051571;28;20498;-73
2024/01/13 04:44:42;;;;;;;14.93;7.27;;;-1.70;89.00;;;-2.70;95.92;98790.25;5044208;28;20497;-74
2024/01/13 04:47:09;;;;;;;16.03;8.90;;;-1.70;89.30;;;-3.01;95.14;98772.19;5063862;28;20460;-75
2024/01/13 04:49:36;;;;;;;16.83;8.97;;;-1.60;87.80;;;-2.97;96.38;98799.22;5069982;28;20796;-69
2024/01/13 04:52:05;;;;;;;14.00;8.50;;;-1.60;87.60;;;-2.97;96.49;98783.34;5056004;28;20447;-70
2024/01/13 04:54:32;;;;;;;19.03;9.80;;;-1.60;87.40;;;-3.00;96.50;98779.16;5064398;28;21047;-73
2024/01/13 04:57:00;;;;;;;16.50;8.80;;;-1.60;87.30;;;-2.96;96.11;98782.41;5057901;28;20479;-73
2024/01/13 04:59:28;;;;;;;16.80;8.97;;;-1.60;87.10;;;-2.94;95.47;98780.50;5050469;28;20551;-74
2024/01/13 05:01:55;;;;;;;18.53;9.60;;;-1.60;86.40;;;-2.87;95.54;98779.09;5058057;28;20865;-74
2024/01/13 05:04:22;;;;;;;17.50;10.80;;;-1.60;86.60;;;-2.95;95.25;98780.59;5051017;28;21490;-74
2024/01/13 05:06:50;;;;;;;13.83;8.80;;;-1.60;85.90;;;-2.96;96.15;98768.34;5048397;28;20497;-76
2024/01/13 05:09:17;;;;;;;17.47;10.50;;;-1.60;86.60;;;-3.01;96.11;98766.03;5062723;28;20967;-72
2024/01/13 05:11:44;;;;;;;14.00;8.93;;;-1.60;86.30;;;-3.15;96.80;98757.28;5057664;28;20786;-75
2024/01/13 05:14:14;;;;;;;15.67;9.70;;;-1.70;86.30;;;-3.22;97.65;98758.69;5066623;28;20466;-74
2024/01/13 05:16:42;;;;;;;15.30;10.47;;;-1.80;87.20;;;-3.15;97.58;98765.22;5043916;28;20475;-74
2024/01/13 05:19:09;;;;;;;15.30;9.23;;;-1.70;87.80;;;-3.03;97.01;98752.94;5048257;28;20454;-71
2024/01/13 05:21:36;;;;;;;15.03;8.70;;;-1.70;88.00;;;-3.03;97.01;98752.06;5046990;28;20454;-73
2024/01/13 05:24:04;;;;;;;16.30;9.70;;;-1.70;87.70;;;-3.42;97.10;98742.44;5048363;28;20789;-74
2024/01/13 05:26:32;;;;;;;17.10;9.00;;;-1.80;86.90;;;-3.10;97.92;98750.84;5044286;28;20464;-71
2024/01/13 05:28:59;;;;;;;18.00;10.60;;;-1.80;88.50;;;-3.07;96.43;98755.91;5046964;28;20453;-77
2024/01/13 05:31:27;;;;;;;16.73;10.40;;;-1.70;86.90;;;-3.29;97.52;98736.28;5035940;28;20495;-76
2024/01/13 05:33:55;;;;;;;17.73;9.83;;;-1.80;86.60;;;-3.40;97.88;98728.28;5041805;28;20828;-73
2024/01/13 05:36:22;;;;;;;20.17;10.53;;;-1.90;87.30;;;-3.31;98.09;98712.63;5041143;28;20484;-74
2024/01/13 05:38:49;;;;;;;19.03;9.77;;;-1.80;88.80;;;-3.09;96.91;98732.22;5056499;28;20478;-72
2024/01/13 05:41:17;;;;;;;15.10;9.43;;;-1.70;87.80;;;-2.95;96.55;98722.44;5037362;28;20515;-67
2024/01/13 05:43:44;;;;;;;15.13;9.37;;;-1.70;87.40;;;-2.99;95.99;98732.38;5038716;28;20995;-74
2024/01/13 05:46:12;;;;;;;17.90;9.50;;;-1.70;87.30;;;-3.05;96.29;98733.66;5043696;28;20460;-72
2024/01/13 05:48:43;;;;;;;16.37;9.67;;;-1.70;86.60;;;-3.10;96.77;98729.69;5042770;28;20489;-73
2024/01/13 05:51:12;;;;;;;20.60;11.40;;;-1.70;86.70;;;-3.21;97.28;98718.09;5038770;28;20471;-72
2024/01/13 05:53:39;;;;;;;18.77;10.10;;;-1.70;86.80;;;-3.23;97.26;98724.41;5043666;28;20464;-72
2024/01/13 05:56:07;;;;;;;18.30;10.00;;;-1.70;87.10;;;-3.03;97.42;98725.63;5043142;28;20458;-75
2024/01/13 05:58:34;;;;;;;18.87;10.87;;;-1.70;88.00;;;-2.88;96.08;98727.16;5043193;28;20478;-73
2024/01/13 06:01:02;;;;;;;16.70;9.40;;;-1.60;87.90;;;-2.85;95.84;98731.38;5047243;28;20667;-74
2024/01/13 06:03:29;;;;;;;19.93;10.70;;;-1.60;86.80;;;-2.87;95.34;98726.19;5051368;28;20465;-75
2024/01/13 06:05:57;;;;;;;15.43;8.90;;;-1.50;86.40;;;-2.93;95.95;98726.66;5046326;28;20875;-72
2024/01/13 06:08:25;;;;;;;16.30;9.67;;;-1.60;85.90;;;-2.79;94.26;98724.81;5058019;28;20519;-72
2024/01/13 06:10:52;;;;;;;16.10;8.73;;;-1.50;85.80;;;-2.71;94.29;98731.22;5047488;28;20480;-76
2024/01/13 06:13:19;;;;;;;15.87;9.13;;;-1.40;85.50;;;-2.57;93.39;98724.06;5071705;28;20850;-76
2024/01/13 06:15:46;;;;;;;15.77;10.00;;;-1.40;85.00;;;-2.52;93.32;98739.56;5050815;28;20865;-72
2024/01/13 06:18:14;;;;;;;20.37;9.60;;;-1.30;84.10;;;-2.53;92.49;98728.16;5045516;28;20505;-74
2024/01/13 06:20:42;;;;;;;16.50;10.90;;;-1.30;83.70;;;-3.19;93.11;98649.22;5045301;28;20460;-74
2024/01/13 06:23:10;;;;;;;18.87;10.50;;;-1.30;83.50;;;-2.62;93.08;98734.97;5057664;28;21575;-73
2024/01/13 06:25:38;;;;;;;15.70;8.83;;;-1.40;83.50;;;-2.58;93.09;98735.56;5054054;28;21580;-75
2024/01/13 06:28:06;;;;;;;15.50;8.60;;;-1.30;83.90;;;-2.63;93.25;98729.78;5047258;28;20444;-72
2024/01/13 06:30:34;;;;;;;18.50;9.50;;;-1.30;83.60;;;-2.66;93.20;98725.56;5045128;28;20546;-73
2024/01/13 06:33:02;;;;;;;19.83;9.67;;;-1.30;83.90;;;-2.71;93.28;98728.56;5041430;28;20473;-72
2024/01/13 06:35:29;;;;;;;15.33;9.70;;;-1.40;83.70;;;-2.81;93.81;98713.47;5066763;28;21394;-76
2024/01/13 06:37:57;;;;;;;15.13;8.40;;;-1.40;84.10;;;-2.67;94.05;98720.41;5045003;28;20616;-72
2024/01/13 06:40:26;;;;;;;16.80;9.33;;;-1.40;84.30;;;-2.65;93.10;98718.47;5051500;28;20494;-74
2024/01/13 06:42:53;;;;;;;20.57;10.43;;;-1.30;84.40;;;-2.56;93.41;98697.47;5046955;28;20840;-74
2024/01/13 06:45:20;;;;;;;19.73;10.30;;;-1.30;84.60;;;-2.80;93.83;98696.66;5052391;28;20462;-71
2024/01/13 06:47:47;;;;;;;20.60;9.90;;;-1.40;83.80;;;-2.73;93.92;98689.94;5052084;28;20460;-72
2024/01/13 06:50:16;;;;;;;18.70;9.77;;;-1.40;84.70;;;-2.76;94.15;98687.53;5049661;28;20504;-72
2024/01/13 06:52:47;;;;;;;18.33;9.53;;;-1.50;84.40;;;-2.77;94.47;98696.44;5053808;28;20960;-72
2024/01/13 06:55:16;;;;;;;18.70;10.80;;;-1.40;84.70;;;-2.61;93.11;98704.91;5041855;28;20447;-73
2024/01/13 06:57:45;;;;;;;14.90;9.10;;;-1.40;84.30;;;-2.70;93.34;98700.31;5042438;28;20477;-71
2024/01/13 07:00:17;;;;;;;19.20;10.47;;;-1.40;84.10;;;-2.72;93.71;98687.22;5049143;28;20531;-67
2024/01/13 07:02:45;;;;;;;17.40;9.23;;;-1.40;84.00;;;-2.76;93.55;98690.19;5056443;28;20525;-72
2024/01/13 07:05:14;;;;;;;19.33;10.87;;;-1.40;84.00;;;-2.80;94.04;98678.16;5057806;28;21157;-70
2024/01/13 07:07:43;;;;;;;19.17;9.63;;;-1.40;84.20;;;-2.82;94.67;98674.75;5063671;28;20464;-73
2024/01/13 07:10:19;;;;;;;15.50;8.40;;;-1.50;84.20;;;-2.80;94.16;98686.09;5066520;28;20454;-73
2024/01/13 07:12:49;;;;;;;16.67;10.40;;;-1.40;84.30;;;-2.71;93.26;98670.38;5042186;28;20526;-79
2024/01/13 07:15:17;;;;;;;23.47;10.80;;;-1.40;83.60;;;-2.82;93.40;98680.03;5036626;28;20457;-71
2024/01/13 07:17:45;;;;;;;14.90;9.50;;;-1.40;83.20;;;-2.57;92.77;98674.63;5037843;28;20468;-71
2024/01/13 07:20:16;;;;;;;18.03;9.47;;;-1.30;83.50;;;-2.65;92.54;98671.72;5038304;28;20458;-72
2024/01/13 07:22:43;;;;;;;16.90;9.23;;;-1.30;83.00;;;-2.56;92.67;98670.19;5060655;28;20465;-71
2024/01/13 07:25:11;;;;;;;16.10;8.83;;;-1.30;83.60;;;-2.43;92.18;98675.38;5047525;28;20469;-71
2024/01/13 07:27:39;;;;;;;14.17;8.77;;;-1.20;83.10;;;-1.97;95.75;98675.44;5058586;28;20455;-70
2024/01/13 07:30:10;;;;;;;14.60;8.17;;;-0.90;88.30;;;-1.34;97.48;98680.25;5032554;28;20500;-71
2024/01/13 07:32:37;;;;;;;14.27;9.60;;;-0.30;92.00;;;-1.42;95.33;98675.56;5045375;28;20459;-70
2024/01/13 07:35:06;;;;;;;14.60;8.60;;;-0.10;90.80;;;-1.18;95.83;98678.03;5040771;28;20458;-70
2024/01/13 07:37:34;;;;;;;13.63;8.80;;;-0.20;89.20;;;-0.75;94.31;98670.19;5042915;28;20991;-70
2024/01/13 07:40:03;;;;;;;15.90;9.10;;;0.30;90.20;;;-1.07;87.43;98671.03;5049030;28;20500;-71
2024/01/13 07:42:32;;;;;;;15.80;8.93;;;0.30;82.00;;;-0.98;88.69;98688.84;5043206;28;20474;-73
2024/01/13 07:45:00;;;;;;;17.80;9.00;;;0.30;81.70;;;-0.88;90.35;98679.16;5041357;28;20540;-72
2024/01/13 07:47:29;;;;;;;16.67;9.33;;;0.20;81.90;;;-0.92;86.70;98667.13;5040214;28;20528;-70
2024/01/13 07:49:57;;;;;;;12.97;8.53;;;0.40;80.90;;;-0.81;88.13;98683.97;5067462;28;21149;-69
2024/01/13 07:52:26;;;;;;;16.63;9.07;;;0.40;80.80;;;-0.67;87.92;98686.34;5048004;28;20464;-72
2024/01/13 07:54:54;;;;;;;12.50;7.50;;;0.50;80.50;;;-1.37;84.68;98688.44;5046868;28;20459;-72
2024/01/13 07:57:26;;;;;;;13.90;8.03;;;0.10;77.80;;;-0.91;86.60;98679.41;5047859;28;20449;-70
2024/01/13 07:59:55;;;;;;;13.50;8.73;;;0.30;80.30;;;-1.05;87.39;98680.56;5059402;28;20997;-71
2024/01/13 08:02:22;;;;;;;16.77;10.37;;;0.20;79.70;;;-0.97;84.01;98685.22;5041405;28;21225;-74
2024/01/13 08:04:51;;;;;;;14.67;9.33;;;0.30;78.80;;;-0.97;85.98;98684.38;5035413;28;20462;-75
2024/01/13 08:07:20;;;;;;;12.73;7.63;;;0.20;78.90;;;-1.39;83.62;98690.38;5041630;28;20925;-71
2024/01/13 08:09:48;;;;;;;12.90;8.40;;;0.00;77.10;;;-1.31;83.97;98679.97;5042251;28;20494;-72
2024/01/13 08:12:15;;;;;;;13.70;8.60;;;0.00;77.40;;;-1.21;84.05;98688.06;5053339;28;20464;-72
2024/01/13 08:14:43;;;;;;;12.20;7.00;;;0.10;78.10;;;-1.51;83.76;98677.13;5041815;28;20452;-72
2024/01/13 08:17:10;;;;;;;13.43;6.80;;;0.00;77.00;;;-1.91;84.79;98685.56;5039672;28;20463;-74
2024/01/13 08:19:38;;;;;;;12.53;7.90;;;-0.40;76.80;;;-1.94;85.11;98680.50;5052948;28;20479;-69
2024/01/13 08:22:07;;;;;;;11.70;7.20;;;-0.50;77.20;;;-1.98;85.91;98673.78;5041229;28;20474;-73
2024/01/13 08:24:37;;;;;;;14.13;8.40;;;-0.60;77.50;;;-2.00;85.37;98672.09;5062259;28;20453;-75
2024/01/13 08:27:07;;;;;;;11.97;7.63;;;-0.60;77.70;;;-2.06;84.59;98683.13;5033959;28;20467;-71
2024/01/13 08:29:34;;;;;;;12.93;7.40;;;-0.60;77.10;;;-2.12;84.96;98680.97;5045608;28;20557;-74
2024/01/13 08:32:02;;;;;;;10.20;6.43;;;-0.70;77.20;;;-2.13;85.92;98676.63;5045591;28;20461;-74
2024/01/13 08:34:31;;;;;;;9.67;6.40;;;-0.80;77.50;;;-2.03;85.51;98672.31;5035291;28;20452;-77
2024/01/13 08:37:01;;;;;;;11.90;7.40;;;-0.70;77.80;;;-2.28;85.95;98678.66;5044321;28;20948;-74
2024/01/13 08:39:33;;;;;;;8.60;5.70;;;-0.80;77.50;;;-2.12;84.49;98678.31;5058281;28;20490;-75
2024/01/13 08:42:03;;;;;;;10.17;5.73;;;-0.80;77.10;;;-2.20;84.75;98686.00;5046617;28;20559;-77
2024/01/13 08:44:31;;;;;;;12.33;8.20;;;-0.80;77.10;;;-2.26;85.65;98682.03;5050490;28;20484;-75
2024/01/13 08:46:58;;;;;;;13.00;6.70;;;-0.90;77.20;;;-2.25;85.74;98682.88;5047144;28;21031;-74
2024/01/13 08:49:27;;;;;;;10.77;6.70;;;-0.90;77.30;;;-2.13;85.23;98666.88;5057037;28;20466;-72
2024/01/13 08:51:55;;;;;;;11.03;7.13;;;-0.90;77.50;;;-2.05;85.26;98674.22;5065643;28;20967;-74
2024/01/13 08:54:24;;;;;;;11.60;6.33;;;-0.80;77.50;;;-2.00;84.60;98673.88;5030315;28;20456;-73
2024/01/13 08:56:53;;;;;;;13.23;6.90;;;-0.70;77.40;;;-2.11;84.86;98672.06;5043410;28;20452;-76
2024/01/13 08:59:21;;;;;;;9.97;6.43;;;-0.70;77.20;;;-2.15;84.43;98682.03;5042343;28;20484;-75
2024/01/13 09:01:48;;;;;;;9.50;6.87;;;-0.80;76.70;;;-2.18;84.42;98692.03;5031535;28;20484;-76
2024/01/13 09:04:17;;;;;;;10.87;6.80;;;-0.80;77.00;;;-2.20;84.62;98664.81;5037580;28;20459;-73
2024/01/13 09:06:44;;;;;;;12.23;6.57;;;-0.80;76.90;;;-2.19;83.61;98663.88;5041792;28;20660;-72
2024/01/13 09:09:12;;;;;;;7.00;4.80;;;-0.80;76.50;;;-2.31;83.43;98674.44;5041350;28;21048;-72
2024/01/13 09:11:42;;;;;;;8.60;6.13;;;-0.80;76.10;;;-2.35;83.29;98680.09;5055371;28;20445;-77
2024/01/13 09:14:11;;;;;;;6.90;4.87;;;-0.90;76.00;;;-2.35;82.95;98677.44;5035859;28;20508;-78
2024/01/13 09:16:45;;;;;;;10.53;4.57;;;-1.00;75.80;;;-2.34;83.04;98664.09;5038508;28;20445;-87
2024/01/13 09:19:12;;;;;;;8.23;5.17;;;-0.90;75.80;;;-2.31;83.40;98677.09;5052533;28;21180;-76
2024/01/13 09:21:40;;;;;;;9.43;5.63;;;-0.90;76.10;;;-2.15;82.75;98662.69;5042025;28;20834;-74
2024/01/13 09:24:08;;;;;;;10.03;5.20;;;-0.80;75.90;;;-2.26;83.44;98665.31;5043830;28;20456;-72
2024/01/13 09:26:41;;;;;;;7.80;4.60;;;-0.90;76.00;;;-2.16;82.71;98661.81;5052479;28;20472;-71
2024/01/13 09:29:13;;;;;;;6.50;4.63;;;-0.80;75.90;;;-2.00;82.28;98664.13;5048505;28;20503;-73
2024/01/13 09:31:41;;;;;;;8.00;4.70;;;-0.70;75.80;;;-2.03;81.68;98652.94;5045161;28;20554;-74
2024/01/13 09:34:10;;;;;;;8.33;4.77;;;-0.70;75.40;;;-2.08;82.64;98652.47;5048911;28;20606;-74
2024/01/13 09:36:38;;;;;;;6.20;4.90;;;-0.70;75.40;;;-2.05;83.03;98657.50;5057940;28;20449;-74
2024/01/13 09:39:10;;;;;;;8.73;6.20;;;-0.70;75.70;;;-2.34;82.51;98595.28;5041186;28;20505;-73
2024/01/13 09:41:38;;;;;;;9.37;6.33;;;-0.70;75.90;;;-2.07;82.53;98654.97;5024357;28;20499;-73
2024/01/13 09:44:19;;;;;;;7.43;4.83;;;-0.70;75.80;;;-1.97;82.19;98635.72;5041943;28;20951;-70
2024/01/13 09:46:49;;;;;;;8.40;5.03;;;-0.70;75.70;;;-1.92;82.25;98641.50;5036259;28;20827;-74
2024/01/13 09:49:18;;;;;;;9.33;6.03;;;-0.60;75.90;;;-1.89;82.05;98641.28;5042973;28;20458;-73
2024/01/13 09:51:47;;;;;;;7.13;5.10;;;-0.60;75.50;;;-1.97;81.42;98641.03;5042210;28;20569;-74
2024/01/13 09:54:22;;;;;;;7.00;4.50;;;-0.50;75.30;;;-1.86;80.30;98672.81;5045034;28;20987;-74
2024/01/13 09:56:52;;;;;;;7.70;4.90;;;-0.50;75.10;;;-2.00;80.56;98650.03;5058387;28;20460;-73
2024/01/13 09:59:22;;;;;;;5.73;4.60;;;-0.50;74.60;;;-1.84;81.25;98660.28;5043582;28;20493;-73
2024/01/13 10:01:51;;;;;;;9.90;5.77;;;-0.50;74.90;;;-1.78;80.74;98649.19;5043285;28;20567;-74
2024/01/13 10:04:19;;;;;;;8.47;5.53;;;-0.40;74.90;;;-1.87;80.82;98645.47;5041957;28;20515;-73
2024/01/13 10:06:50;;;;;;;7.20;5.67;;;-0.40;74.80;;;-2.02;81.83;98644.88;5042403;28;20464;-74
2024/01/13 10:09:18;;;;;;;10.50;7.40;;;-0.60;74.70;;;-2.07;82.28;98639.06;5041983;28;20464;-73
2024/01/13 10:11:46;;;;;;;9.50;5.90;;;-0.60;75.10;;;-1.96;81.93;98643.56;5046457;28;21351;-73
2024/01/13 10:14:14;;;;;;;10.57;6.40;;;-0.60;75.20;;;-1.91;81.92;98637.88;5045040;28;20447;-71
2024/01/13 10:16:45;;;;;;;7.37;5.27;;;-0.60;75.20;;;-1.83;81.44;98645.22;5047685;28;20516;-77